createdAt,value
2017-06-15T00:00:17.205Z,17.20
2017-06-15T00:02:44.974Z,17.10
2017-06-15T00:05:12.515Z,17.10
2017-06-15T00:07:40.110Z,17.10
2017-06-15T00:10:07.645Z,17.00
2017-06-15T00:12:35.186Z,17.00
2017-06-15T00:15:02.789Z,17.00
2017-06-15T00:17:30.329Z,16.90
2017-06-15T00:19:57.873Z,16.80
2017-06-15T00:22:25.626Z,16.80
2017-06-15T00:24:53.975Z,16.70
2017-06-15T00:27:21.518Z,16.70
2017-06-15T00:29:49.098Z,16.70
2017-06-15T00:32:16.640Z,16.70
2017-06-15T00:34:44.246Z,16.60
2017-06-15T00:37:12.756Z,16.50
2017-06-15T00:39:40.303Z,16.50
2017-06-15T00:42:08.218Z,16.50
2017-06-15T00:44:35.758Z,16.40
2017-06-15T00:47:03.304Z,16.40
2017-06-15T00:49:30.937Z,16.40
2017-06-15T00:51:58.481Z,16.30
2017-06-15T00:54:26.020Z,16.30
2017-06-15T00:56:53.629Z,16.30
2017-06-15T00:59:21.931Z,16.20
2017-06-15T01:01:49.474Z,16.20
2017-06-15T01:04:17.221Z,16.20
2017-06-15T01:06:45.526Z,16.10
2017-06-15T01:09:13.105Z,16.00
2017-06-15T01:11:40.681Z,16.00
2017-06-15T01:14:08.222Z,16.00
2017-06-15T01:16:35.817Z,16.00
2017-06-15T01:19:03.355Z,16.10
2017-06-15T01:21:30.903Z,16.00
2017-06-15T01:23:58.625Z,16.00
2017-06-15T01:26:26.935Z,15.90
2017-06-15T01:28:55.479Z,15.90
2017-06-15T01:31:23.800Z,15.80
2017-06-15T01:33:51.378Z,15.80
2017-06-15T01:36:18.918Z,15.80
2017-06-15T01:38:46.677Z,15.80
2017-06-15T01:41:14.214Z,15.70
2017-06-15T01:43:42.521Z,15.70
2017-06-15T01:46:10.169Z,15.70
2017-06-15T01:48:37.710Z,15.60
2017-06-15T01:51:06.028Z,15.60
2017-06-15T01:53:33.658Z,15.60
2017-06-15T01:56:01.965Z,15.60
2017-06-15T01:58:29.504Z,15.60
2017-06-15T02:00:57.181Z,15.60
2017-06-15T02:03:24.829Z,15.60
2017-06-15T02:05:52.370Z,15.60
2017-06-15T02:08:19.914Z,15.60
2017-06-15T02:10:47.498Z,15.50
2017-06-15T02:13:15.421Z,15.50
2017-06-15T02:15:42.973Z,15.50
2017-06-15T02:18:10.509Z,15.50
2017-06-15T02:20:38.146Z,15.50
2017-06-15T02:23:06.541Z,15.40
2017-06-15T02:25:34.082Z,15.30
2017-06-15T02:28:02.394Z,15.30
2017-06-15T02:30:30.346Z,15.30
2017-06-15T02:32:57.893Z,15.30
2017-06-15T02:35:26.198Z,15.30
2017-06-15T02:37:58.986Z,15.20
2017-06-15T02:40:26.525Z,15.20
2017-06-15T02:42:54.137Z,15.20
2017-06-15T02:45:21.677Z,15.10
2017-06-15T02:47:49.218Z,15.10
2017-06-15T02:50:16.797Z,15.10
2017-06-15T02:52:44.413Z,15.10
2017-06-15T02:55:11.953Z,15.00
2017-06-15T02:57:39.497Z,15.00
2017-06-15T03:00:07.191Z,15.00
2017-06-15T03:02:34.737Z,15.00
2017-06-15T03:05:02.333Z,14.90
2017-06-15T03:07:29.889Z,14.90
2017-06-15T03:09:58.193Z,14.90
2017-06-15T03:12:25.874Z,14.90
2017-06-15T03:14:53.914Z,14.90
2017-06-15T03:17:21.458Z,14.90
2017-06-15T03:19:49.298Z,14.90
2017-06-15T03:22:16.853Z,14.90
2017-06-15T03:24:44.394Z,14.90
2017-06-15T03:27:11.973Z,14.90
2017-06-15T03:29:39.929Z,14.90
2017-06-15T03:32:07.506Z,14.90
2017-06-15T03:34:35.041Z,15.00
2017-06-15T03:37:02.919Z,15.00
2017-06-15T03:39:30.734Z,15.00
2017-06-15T03:41:58.318Z,15.00
2017-06-15T03:44:25.898Z,15.10
2017-06-15T03:46:58.417Z,15.10
2017-06-15T03:49:25.982Z,15.20
2017-06-15T03:51:54.290Z,15.30
2017-06-15T03:54:22.022Z,15.30
2017-06-15T03:56:49.634Z,15.30
2017-06-15T03:59:17.194Z,15.40
2017-06-15T04:01:44.755Z,15.40
2017-06-15T04:04:12.346Z,15.40
2017-06-15T04:06:39.893Z,15.50
2017-06-15T04:09:07.649Z,15.50
2017-06-15T04:11:35.189Z,15.60
2017-06-15T04:14:02.736Z,15.60
2017-06-15T04:16:30.513Z,15.60
2017-06-15T04:18:58.061Z,15.60
2017-06-15T04:21:25.642Z,15.70
2017-06-15T04:23:53.190Z,15.70
2017-06-15T04:26:20.922Z,15.70
2017-06-15T04:28:49.225Z,15.80
2017-06-15T04:31:16.806Z,15.80
2017-06-15T04:33:44.350Z,15.90
2017-06-15T04:36:11.950Z,15.90
2017-06-15T04:38:39.718Z,16.00
2017-06-15T04:41:07.281Z,16.00
2017-06-15T04:43:34.970Z,16.10
2017-06-15T04:46:11.089Z,16.20
2017-06-15T13:22:19.261Z,32.60
2017-06-15T13:24:46.841Z,32.60
2017-06-15T13:27:14.397Z,32.70
2017-06-15T13:29:42.049Z,32.90
2017-06-15T13:32:09.603Z,33.10
2017-06-15T13:34:37.202Z,33.10
2017-06-15T13:37:04.755Z,33.10
2017-06-15T13:39:32.300Z,33.10
2017-06-15T13:42:01.245Z,33.20
2017-06-15T13:44:29.554Z,33.10
2017-06-15T13:46:57.217Z,33.10
2017-06-15T13:49:24.758Z,33.00
2017-06-15T13:51:52.341Z,32.90
2017-06-15T13:54:19.877Z,32.90
2017-06-15T13:56:47.477Z,32.70
2017-06-15T13:59:15.035Z,32.60
2017-06-15T14:01:42.573Z,32.50
2017-06-15T14:04:10.479Z,32.30
2017-06-15T14:06:38.019Z,32.20
2017-06-15T14:09:05.566Z,32.10
2017-06-15T14:11:33.151Z,32.10
2017-06-15T14:14:00.695Z,32.00
2017-06-15T14:16:28.230Z,31.80
2017-06-15T14:18:56.029Z,31.80
2017-06-15T14:21:23.626Z,31.60
2017-06-15T14:23:51.163Z,31.50
2017-06-15T14:26:18.729Z,31.40
2017-06-15T14:28:46.799Z,31.30
2017-06-15T14:31:14.339Z,31.20
2017-06-15T14:33:41.877Z,31.10
2017-06-15T14:36:09.609Z,31.00
2017-06-15T14:38:37.190Z,30.90
2017-06-15T14:41:05.493Z,30.70
2017-06-15T14:43:33.489Z,30.70
2017-06-15T14:46:01.026Z,30.60
2017-06-15T14:48:28.566Z,30.50
2017-06-15T14:50:56.261Z,30.40
2017-06-15T14:53:24.120Z,30.30
2017-06-15T14:55:51.718Z,30.10
2017-06-15T14:58:19.262Z,30.00
2017-06-15T15:00:46.841Z,29.90
2017-06-15T15:03:14.382Z,29.70
2017-06-15T15:05:45.625Z,29.60
2017-06-15T15:08:13.179Z,29.40
2017-06-15T15:10:40.721Z,29.20
2017-06-15T15:13:08.461Z,29.00
2017-06-15T15:15:36.010Z,28.90
2017-06-15T15:18:03.555Z,28.60
2017-06-15T15:20:31.848Z,28.20
2017-06-15T15:23:00.168Z,27.60
2017-06-15T15:25:27.718Z,27.60
2017-06-15T15:27:55.717Z,27.40
2017-06-15T15:30:23.260Z,27.10
2017-06-15T15:32:50.793Z,27.00
2017-06-15T15:35:18.910Z,26.90
2017-06-15T15:37:46.451Z,26.80
2017-06-15T15:40:13.998Z,26.70
2017-06-15T15:42:41.803Z,26.70
2017-06-15T15:45:09.722Z,26.60
2017-06-15T15:47:37.338Z,26.50
2017-06-15T15:50:04.890Z,26.40
2017-06-15T15:52:32.431Z,26.30
2017-06-15T15:55:00.016Z,26.20
2017-06-15T15:57:27.769Z,26.10
2017-06-15T15:59:55.340Z,26.00
2017-06-15T16:02:22.913Z,25.90
2017-06-15T16:04:50.697Z,25.80
2017-06-15T16:07:19.017Z,25.60
2017-06-15T16:09:46.563Z,25.60
2017-06-15T16:12:14.145Z,25.40
2017-06-15T16:14:41.701Z,25.20
2017-06-15T16:17:09.320Z,25.00
2017-06-15T16:19:36.867Z,24.80
2017-06-15T16:22:04.418Z,24.60
2017-06-15T16:24:32.375Z,24.50
2017-06-15T16:26:59.929Z,24.40
2017-06-15T16:29:27.477Z,24.30
2017-06-15T16:31:55.085Z,24.20
2017-06-15T16:34:22.691Z,24.10
2017-06-15T16:36:50.598Z,24.00
2017-06-15T16:39:18.162Z,24.00
2017-06-15T16:41:45.710Z,23.90
2017-06-15T16:44:13.466Z,23.90
2017-06-15T16:46:41.408Z,23.90
2017-06-15T16:49:08.982Z,23.80
2017-06-15T16:51:36.578Z,23.70
2017-06-15T16:54:04.176Z,23.60
2017-06-15T16:56:31.794Z,23.50
2017-06-15T16:58:59.361Z,23.50
2017-06-15T17:01:26.929Z,23.50
2017-06-15T17:03:54.589Z,23.40
2017-06-15T17:06:22.906Z,23.40
2017-06-15T17:08:50.494Z,23.40
2017-06-15T17:11:18.044Z,23.40
2017-06-15T17:13:45.633Z,23.40
2017-06-15T17:16:16.886Z,23.40
2017-06-15T17:18:44.457Z,23.30
2017-06-15T17:21:13.118Z,23.40
2017-06-15T17:23:40.666Z,23.40
2017-06-15T17:26:08.214Z,23.50
2017-06-15T17:28:35.803Z,23.50
2017-06-15T17:31:03.393Z,23.60
2017-06-15T17:33:30.946Z,23.60
2017-06-15T17:35:58.573Z,23.70
2017-06-15T17:38:26.119Z,23.80
2017-06-15T17:40:53.674Z,23.80
2017-06-15T17:43:21.670Z,23.80
2017-06-15T17:45:49.222Z,23.90
2017-06-15T17:48:20.859Z,23.90
2017-06-15T17:50:48.462Z,23.90
2017-06-15T17:53:16.017Z,23.80
2017-06-15T17:55:43.573Z,23.80
2017-06-15T17:58:11.162Z,23.80
2017-06-15T18:00:38.713Z,23.80
2017-06-15T18:03:06.550Z,23.80
2017-06-15T18:05:34.090Z,23.70
2017-06-15T18:08:01.682Z,23.70
2017-06-15T18:10:29.238Z,23.70
2017-06-15T18:12:56.785Z,23.70
2017-06-15T18:15:24.409Z,23.60
2017-06-15T18:17:51.969Z,23.60
2017-06-15T18:20:19.664Z,23.50
2017-06-15T18:22:47.343Z,23.40
2017-06-15T18:25:18.587Z,23.30
2017-06-15T18:27:46.138Z,23.30
2017-06-15T18:30:13.698Z,23.30
2017-06-15T18:32:41.291Z,23.30
2017-06-15T18:35:08.841Z,23.30
2017-06-15T18:37:36.730Z,23.30
2017-06-15T18:40:05.046Z,23.30
2017-06-15T18:42:32.609Z,23.20
2017-06-15T18:45:01.023Z,23.30
2017-06-15T18:47:28.574Z,23.20
2017-06-15T18:49:56.158Z,23.20
2017-06-15T18:52:23.711Z,23.20
2017-06-15T18:54:51.325Z,23.20
2017-06-15T18:57:18.902Z,23.10
2017-06-15T18:59:46.457Z,23.10
2017-06-15T19:02:14.158Z,23.10
2017-06-15T19:04:41.761Z,23.00
2017-06-15T19:07:09.314Z,23.00
2017-06-15T19:09:36.866Z,23.00
2017-06-15T19:12:04.498Z,22.90
2017-06-15T19:14:32.054Z,22.80
2017-06-15T19:17:00.949Z,22.80
2017-06-15T19:19:28.502Z,22.80
2017-06-15T19:21:56.577Z,22.70
2017-06-15T19:24:24.133Z,22.70
2017-06-15T19:26:51.678Z,22.60
2017-06-15T19:29:19.266Z,22.60
2017-06-15T19:31:46.814Z,22.50
2017-06-15T19:34:15.265Z,22.40
2017-06-15T19:36:42.830Z,22.30
2017-06-15T19:39:10.417Z,22.30
2017-06-15T19:41:39.422Z,22.20
2017-06-15T19:44:06.974Z,22.20
2017-06-15T19:46:34.841Z,22.20
2017-06-15T19:49:02.433Z,22.10
2017-06-15T19:51:30.746Z,22.10
2017-06-15T19:53:58.350Z,22.10
2017-06-15T19:56:25.910Z,22.10
2017-06-15T19:58:53.513Z,22.10
2017-06-15T20:01:22.578Z,22.00
2017-06-15T20:03:50.141Z,21.90
2017-06-15T20:06:18.469Z,21.90
2017-06-15T20:08:46.078Z,21.80
2017-06-15T20:11:13.681Z,21.90
2017-06-15T20:13:41.234Z,21.80
2017-06-15T20:16:09.673Z,21.80
2017-06-15T20:18:37.225Z,21.80
2017-06-15T20:21:05.001Z,21.80
2017-06-15T20:23:32.550Z,21.80
2017-06-15T20:26:00.103Z,21.80
2017-06-15T20:28:27.743Z,21.70
2017-06-15T20:30:55.290Z,21.70
2017-06-15T20:33:32.098Z,21.70
2017-06-15T20:35:59.705Z,21.60
2017-06-15T20:38:28.412Z,21.60
2017-06-15T20:40:56.150Z,21.60
2017-06-15T20:43:23.711Z,21.60
2017-06-15T20:45:51.322Z,21.60
2017-06-15T20:48:19.013Z,21.50
2017-06-15T20:50:46.570Z,21.50
2017-06-15T20:53:14.165Z,21.40
2017-06-15T20:55:41.719Z,21.30
2017-06-15T20:58:09.473Z,21.30
2017-06-15T21:00:37.035Z,21.20
2017-06-15T21:03:05.362Z,21.10
2017-06-15T21:05:32.952Z,21.10
2017-06-15T21:08:00.497Z,21.10
2017-06-15T21:10:28.133Z,21.00
2017-06-15T21:12:55.682Z,21.00
2017-06-15T21:15:23.270Z,21.00
2017-06-15T21:17:51.011Z,20.90
2017-06-15T21:20:18.564Z,20.90
2017-06-15T21:22:46.234Z,20.90
2017-06-15T21:25:13.782Z,20.80
2017-06-15T21:27:41.361Z,20.80
2017-06-15T21:30:08.949Z,20.80
2017-06-15T21:32:36.563Z,20.70
2017-06-15T21:35:04.306Z,20.70
2017-06-15T21:37:31.853Z,20.60
2017-06-15T21:39:59.410Z,20.60
2017-06-15T21:42:26.998Z,20.60
2017-06-15T21:44:55.313Z,20.50
2017-06-15T21:47:23.102Z,20.50
2017-06-15T21:49:50.663Z,20.40
2017-06-15T21:52:22.162Z,20.30
2017-06-15T21:54:49.741Z,20.20
2017-06-15T21:57:17.293Z,20.30
2017-06-15T21:59:44.882Z,20.20
2017-06-15T22:02:12.434Z,20.10
2017-06-15T22:04:40.031Z,20.10
2017-06-15T22:07:07.577Z,20.00
2017-06-15T22:09:35.356Z,20.00
2017-06-15T22:12:02.917Z,19.90
2017-06-15T22:14:30.509Z,19.90
2017-06-15T22:16:58.821Z,19.80
2017-06-15T22:19:26.461Z,19.80
2017-06-15T22:21:54.150Z,19.70
2017-06-15T22:24:21.696Z,19.60
2017-06-15T22:26:49.405Z,19.60
2017-06-15T22:29:16.953Z,19.60
2017-06-15T22:31:44.534Z,19.50
2017-06-15T22:34:12.086Z,19.50
2017-06-15T22:36:40.893Z,19.40
2017-06-15T22:39:09.206Z,19.30
2017-06-15T22:41:36.749Z,19.30
2017-06-15T22:44:04.469Z,19.20
2017-06-15T22:46:32.161Z,19.20
2017-06-15T22:48:59.782Z,19.10
2017-06-15T22:51:27.336Z,19.10
2017-06-15T22:53:54.885Z,19.10
2017-06-15T22:56:22.469Z,19.10
2017-06-15T22:58:50.070Z,19.00
2017-06-15T23:01:18.385Z,18.90
2017-06-15T23:03:45.925Z,18.90
2017-06-15T23:06:14.978Z,18.90
2017-06-15T23:08:42.522Z,18.80
2017-06-15T23:11:10.098Z,18.80
2017-06-15T23:13:37.641Z,18.80
2017-06-15T23:16:05.226Z,18.70
2017-06-15T23:18:32.773Z,18.60
2017-06-15T23:21:00.949Z,18.60
2017-06-15T23:23:28.495Z,18.50
2017-06-15T23:25:56.040Z,18.50
2017-06-15T23:28:24.040Z,18.40
2017-06-15T23:30:51.585Z,18.40
2017-06-15T23:33:19.130Z,18.30
2017-06-15T23:35:48.488Z,18.30
2017-06-15T23:38:16.149Z,18.20
2017-06-15T23:40:43.696Z,18.20
2017-06-15T23:43:11.328Z,18.20
2017-06-15T23:45:38.865Z,18.20
2017-06-15T23:48:06.726Z,18.10
2017-06-15T23:50:34.360Z,18.10
2017-06-15T23:53:02.670Z,18.10
2017-06-15T23:55:30.214Z,18.00
2017-06-15T23:57:57.910Z,18.00
